sensor_id;sensor_type;location;lat;lon;timestamp;pressure;altitude;pressure_sealevel;temperature;humidity
19811;BME280;10065;49.632;8.346;2023-02-12T00:00:40;102726.13;;;8.80;68.42
19811;BME280;10065;49.632;8.346;2023-02-12T00:03:08;102724.53;;;8.77;68.96
19811;BME280;10065;49.632;8.346;2023-02-12T00:05:36;102714.94;;;8.75;69.44
19811;BME280;10065;49.632;8.346;2023-02-12T00:08:04;102715.22;;;8.70;69.80
19811;BME280;10065;49.632;8.346;2023-02-12T00:10:32;102716.16;;;8.69;69.88
19811;BME280;10065;49.632;8.346;2023-02-12T00:13:00;102708.50;;;8.63;70.37
19811;BME280;10065;49.632;8.346;2023-02-12T00:15:29;102708.63;;;8.61;70.44
19811;BME280;10065;49.632;8.346;2023-02-12T00:17:57;102708.69;;;8.60;70.44
19811;BME280;10065;49.632;8.346;2023-02-12T00:20:24;102712.94;;;8.62;70.45
19811;BME280;10065;49.632;8.346;2023-02-12T00:22:52;102709.38;;;8.63;70.58
19811;BME280;10065;49.632;8.346;2023-02-12T00:25:20;102712.66;;;8.68;70.19
19811;BME280;10065;49.632;8.346;2023-02-12T00:27:47;102716.22;;;8.67;70.02
19811;BME280;10065;49.632;8.346;2023-02-12T00:30:16;102718.47;;;8.75;69.66
19811;BME280;10065;49.632;8.346;2023-02-12T00:32:45;102712.91;;;8.80;69.01
19811;BME280;10065;49.632;8.346;2023-02-12T00:35:13;102716.59;;;8.77;69.69
19811;BME280;10065;49.632;8.346;2023-02-12T00:37:41;102716.75;;;8.74;69.97
19811;BME280;10065;49.632;8.346;2023-02-12T00:40:09;102719.53;;;8.71;70.17
19811;BME280;10065;49.632;8.346;2023-02-12T00:42:37;102719.66;;;8.70;70.44
19811;BME280;10065;49.632;8.346;2023-02-12T00:45:05;102720.59;;;8.68;70.54
19811;BME280;10065;49.632;8.346;2023-02-12T00:47:33;102721.66;;;8.64;70.78
19811;BME280;10065;49.632;8.346;2023-02-12T00:50:02;102721.50;;;8.67;70.67
19811;BME280;10065;49.632;8.346;2023-02-12T00:52:30;102729.59;;;8.64;70.91
19811;BME280;10065;49.632;8.346;2023-02-12T00:54:58;102727.66;;;8.68;70.70
19811;BME280;10065;49.632;8.346;2023-02-12T00:57:25;102734.03;;;8.64;71.01
19811;BME280;10065;49.632;8.346;2023-02-12T00:59:53;102736.38;;;8.70;69.95
19811;BME280;10065;49.632;8.346;2023-02-12T01:02:20;102727.31;;;8.74;69.64
19811;BME280;10065;49.632;8.346;2023-02-12T01:04:48;102733.81;;;8.68;69.96
19811;BME280;10065;49.632;8.346;2023-02-12T01:07:17;102732.25;;;8.64;70.47
19811;BME280;10065;49.632;8.346;2023-02-12T01:09:46;102734.81;;;8.66;70.48
19811;BME280;10065;49.632;8.346;2023-02-12T01:12:14;102730.53;;;8.63;70.56
19811;BME280;10065;49.632;8.346;2023-02-12T01:14:42;102730.53;;;8.63;70.76
19811;BME280;10065;49.632;8.346;2023-02-12T01:17:09;102733.19;;;8.63;70.62
19811;BME280;10065;49.632;8.346;2023-02-12T01:19:37;102725.25;;;8.63;70.86
19811;BME280;10065;49.632;8.346;2023-02-12T01:22:04;102729.59;;;8.64;70.82
19811;BME280;10065;49.632;8.346;2023-02-12T01:24:34;102729.59;;;8.64;70.88
19811;BME280;10065;49.632;8.346;2023-02-12T01:27:01;102734.97;;;8.63;71.03
19811;BME280;10065;49.632;8.346;2023-02-12T01:29:29;102737.72;;;8.61;70.83
19811;BME280;10065;49.632;8.346;2023-02-12T01:31:57;102730.72;;;8.60;71.10
19811;BME280;10065;49.632;8.346;2023-02-12T01:34:24;102727.97;;;8.62;71.16
19811;BME280;10065;49.632;8.346;2023-02-12T01:36:52;102724.56;;;8.60;71.24
19811;BME280;10065;49.632;8.346;2023-02-12T01:39:20;102721.28;;;8.55;71.42
19811;BME280;10065;49.632;8.346;2023-02-12T01:41:49;102718.72;;;8.53;71.46
19811;BME280;10065;49.632;8.346;2023-02-12T01:44:19;102722.94;;;8.57;71.30
19811;BME280;10065;49.632;8.346;2023-02-12T01:46:49;102721.84;;;8.61;71.06
19811;BME280;10065;49.632;8.346;2023-02-12T01:49:20;102721.25;;;8.72;70.48
19811;BME280;10065;49.632;8.346;2023-02-12T01:51:51;102715.72;;;8.77;69.74
19811;BME280;10065;49.632;8.346;2023-02-12T01:54:20;102716.66;;;8.76;70.19
19811;BME280;10065;49.632;8.346;2023-02-12T01:56:52;102711.72;;;8.70;70.62
19811;BME280;10065;49.632;8.346;2023-02-12T01:59:20;102716.22;;;8.67;70.64
19811;BME280;10065;49.632;8.346;2023-02-12T02:01:48;102712.66;;;8.68;70.51
19811;BME280;10065;49.632;8.346;2023-02-12T02:04:19;102715.03;;;8.73;69.66
19811;BME280;10065;49.632;8.346;2023-02-12T02:06:54;102721.69;;;8.80;69.48
19811;BME280;10065;49.632;8.346;2023-02-12T02:09:23;102716.25;;;8.83;69.37
19811;BME280;10065;49.632;8.346;2023-02-12T02:11:52;102715.25;;;8.86;69.13
19811;BME280;10065;49.632;8.346;2023-02-12T02:14:39;102719.50;;;8.88;69.01
19811;BME280;10065;49.632;8.346;2023-02-12T02:17:38;102715.25;;;8.86;69.70
19811;BME280;10065;49.632;8.346;2023-02-12T02:20:33;102719.91;;;8.81;70.33
19811;BME280;10065;49.632;8.346;2023-02-12T02:23:29;102710.53;;;8.75;70.73
19811;BME280;10065;49.632;8.346;2023-02-12T02:26:27;102717.59;;;8.75;70.78
19811;BME280;10065;49.632;8.346;2023-02-12T02:29:15;102715.09;;;8.72;71.00
19811;BME280;10065;49.632;8.346;2023-02-12T02:31:51;102707.34;;;8.68;71.28
19811;BME280;10065;49.632;8.346;2023-02-12T02:34:28;102704.84;;;8.65;71.14
19811;BME280;10065;49.632;8.346;2023-02-12T02:37:09;102700.50;;;8.64;71.25
19811;BME280;10065;49.632;8.346;2023-02-12T02:39:42;102702.47;;;8.61;71.36
19811;BME280;10065;49.632;8.346;2023-02-12T02:42:16;102698.97;;;8.60;71.48
19811;BME280;10065;49.632;8.346;2023-02-12T02:44:49;102707.59;;;8.64;71.14
19811;BME280;10065;49.632;8.346;2023-02-12T02:47:23;102707.50;;;8.65;71.08
19811;BME280;10065;49.632;8.346;2023-02-12T02:49:54;102704.78;;;8.67;70.82
19811;BME280;10065;49.632;8.346;2023-02-12T02:52:29;102717.59;;;8.75;70.44
19811;BME280;10065;49.632;8.346;2023-02-12T02:55:04;102712.31;;;8.75;70.21
19811;BME280;10065;49.632;8.346;2023-02-12T02:57:37;102706.88;;;8.78;69.72
19811;BME280;10065;49.632;8.346;2023-02-12T03:00:10;102711.22;;;8.79;69.76
19811;BME280;10065;49.632;8.346;2023-02-12T03:02:43;102712.81;;;8.81;69.79
19811;BME280;10065;49.632;8.346;2023-02-12T03:05:18;102705.75;;;8.82;69.41
19811;BME280;10065;49.632;8.346;2023-02-12T03:07:50;102708.25;;;8.85;69.34
19811;BME280;10065;49.632;8.346;2023-02-12T03:10:22;102708.25;;;8.85;69.59
19811;BME280;10065;49.632;8.346;2023-02-12T03:12:54;102701.22;;;8.84;69.65
19811;BME280;10065;49.632;8.346;2023-02-12T03:15:30;102709.16;;;8.84;69.93
19811;BME280;10065;49.632;8.346;2023-02-12T03:18:04;102706.00;;;8.77;70.11
19811;BME280;10065;49.632;8.346;2023-02-12T03:20:36;102708.97;;;8.71;70.82
19811;BME280;10065;49.632;8.346;2023-02-12T03:23:09;102706.66;;;8.65;71.09
19811;BME280;10065;49.632;8.346;2023-02-12T03:25:41;102705.72;;;8.66;71.40
19811;BME280;10065;49.632;8.346;2023-02-12T03:28:15;102695.41;;;8.61;71.68
19811;BME280;10065;49.632;8.346;2023-02-12T03:30:48;102704.94;;;8.64;71.54
19811;BME280;10065;49.632;8.346;2023-02-12T03:33:28;102699.72;;;8.62;71.60
19811;BME280;10065;49.632;8.346;2023-02-12T03:36:06;102702.28;;;8.64;71.35
19811;BME280;10065;49.632;8.346;2023-02-12T03:38:40;102714.50;;;8.66;71.04
19811;BME280;10065;49.632;8.346;2023-02-12T03:41:12;102712.47;;;8.72;70.78
19811;BME280;10065;49.632;8.346;2023-02-12T03:43:48;102715.97;;;8.72;70.87
19811;BME280;10065;49.632;8.346;2023-02-12T03:46:20;102702.91;;;8.69;71.04
19811;BME280;10065;49.632;8.346;2023-02-12T03:48:57;102706.56;;;8.66;71.32
19811;BME280;10065;49.632;8.346;2023-02-12T03:51:29;102708.28;;;8.67;71.20
19811;BME280;10065;49.632;8.346;2023-02-12T03:54:00;102707.50;;;8.65;71.65
19811;BME280;10065;49.632;8.346;2023-02-12T03:56:32;102706.81;;;8.62;71.77
19811;BME280;10065;49.632;8.346;2023-02-12T03:59:02;102704.25;;;8.60;71.63
19811;BME280;10065;49.632;8.346;2023-02-12T04:01:30;102710.00;;;8.68;71.06
19811;BME280;10065;49.632;8.346;2023-02-12T04:04:02;102703.78;;;8.70;70.99
19811;BME280;10065;49.632;8.346;2023-02-12T04:06:31;102709.81;;;8.72;70.89
19811;BME280;10065;49.632;8.346;2023-02-12T04:09:02;102714.16;;;8.73;70.83
19811;BME280;10065;49.632;8.346;2023-02-12T04:11:39;102718.78;;;8.69;71.16
19811;BME280;10065;49.632;8.346;2023-02-12T04:14:19;102720.31;;;8.73;71.01
19811;BME280;10065;49.632;8.346;2023-02-12T04:16:53;102723.22;;;8.68;71.43
19811;BME280;10065;49.632;8.346;2023-02-12T04:19:31;102728.81;;;8.62;71.90
19811;BME280;10065;49.632;8.346;2023-02-12T04:22:13;102730.53;;;8.63;72.32
19811;BME280;10065;49.632;8.346;2023-02-12T04:24:48;102723.53;;;8.62;72.50
19811;BME280;10065;49.632;8.346;2023-02-12T04:27:20;102721.66;;;8.64;72.48
19811;BME280;10065;49.632;8.346;2023-02-12T04:29:53;102726.94;;;8.64;72.54
19811;BME280;10065;49.632;8.346;2023-02-12T04:32:27;102729.44;;;8.67;72.53
19811;BME280;10065;49.632;8.346;2023-02-12T04:35:04;102729.53;;;8.66;72.76
19811;BME280;10065;49.632;8.346;2023-02-12T04:37:37;102725.09;;;8.66;72.57
19811;BME280;10065;49.632;8.346;2023-02-12T04:40:11;102732.09;;;8.67;72.76
19811;BME280;10065;49.632;8.346;2023-02-12T04:42:42;102732.09;;;8.67;72.84
19811;BME280;10065;49.632;8.346;2023-02-12T04:45:10;102735.66;;;8.66;73.08
19811;BME280;10065;49.632;8.346;2023-02-12T04:47:39;102736.44;;;8.68;72.93
19811;BME280;10065;49.632;8.346;2023-02-12T04:50:09;102740.97;;;8.66;73.08
19811;BME280;10065;49.632;8.346;2023-02-12T04:52:36;102736.69;;;8.64;73.11
19811;BME280;10065;49.632;8.346;2023-02-12T04:55:04;102732.25;;;8.64;73.20
19811;BME280;10065;49.632;8.346;2023-02-12T04:57:32;102726.94;;;8.64;73.25
19811;BME280;10065;49.632;8.346;2023-02-12T05:00:00;102726.94;;;8.64;73.34
19811;BME280;10065;49.632;8.346;2023-02-12T05:02:28;102729.66;;;8.63;73.19
19811;BME280;10065;49.632;8.346;2023-02-12T05:04:55;102731.16;;;8.68;73.00
19811;BME280;10065;49.632;8.346;2023-02-12T05:07:25;102725.09;;;8.66;72.98
19811;BME280;10065;49.632;8.346;2023-02-12T05:09:53;102721.50;;;8.67;72.85
19811;BME280;10065;49.632;8.346;2023-02-12T05:12:20;102725.78;;;8.70;72.78
19811;BME280;10065;49.632;8.346;2023-02-12T05:14:48;102719.66;;;8.70;72.78
19811;BME280;10065;49.632;8.346;2023-02-12T05:17:16;102718.78;;;8.69;72.74
19811;BME280;10065;49.632;8.346;2023-02-12T05:19:43;102727.47;;;8.71;72.90
19811;BME280;10065;49.632;8.346;2023-02-12T05:22:11;102722.44;;;8.66;72.96
19811;BME280;10065;49.632;8.346;2023-02-12T05:24:41;102720.66;;;8.67;72.81
19811;BME280;10065;49.632;8.346;2023-02-12T05:27:08;102719.81;;;8.66;72.98
19811;BME280;10065;49.632;8.346;2023-02-12T05:29:36;102727.72;;;8.66;73.07
19811;BME280;10065;49.632;8.346;2023-02-12T05:32:04;102728.50;;;8.68;73.02
19811;BME280;10065;49.632;8.346;2023-02-12T05:34:33;102726.47;;;8.74;72.48
19811;BME280;10065;49.632;8.346;2023-02-12T05:37:01;102721.03;;;8.77;71.88
19811;BME280;10065;49.632;8.346;2023-02-12T05:39:29;102719.06;;;8.80;71.89
19811;BME280;10065;49.632;8.346;2023-02-12T05:41:58;102720.25;;;8.75;72.40
19811;BME280;10065;49.632;8.346;2023-02-12T05:44:26;102716.88;;;8.71;72.89
19811;BME280;10065;49.632;8.346;2023-02-12T05:46:53;102718.53;;;8.74;72.79
19811;BME280;10065;49.632;8.346;2023-02-12T05:49:21;102720.41;;;8.72;72.86
19811;BME280;10065;49.632;8.346;2023-02-12T05:51:49;102724.84;;;8.71;73.01
19811;BME280;10065;49.632;8.346;2023-02-12T05:54:16;102724.75;;;8.73;72.95
19811;BME280;10065;49.632;8.346;2023-02-12T05:56:45;102722.97;;;8.73;73.25
19811;BME280;10065;49.632;8.346;2023-02-12T05:59:16;102725.63;;;8.73;72.95
19811;BME280;10065;49.632;8.346;2023-02-12T06:01:45;102730.03;;;8.73;72.97
19811;BME280;10065;49.632;8.346;2023-02-12T06:04:15;102732.53;;;8.76;72.81
19811;BME280;10065;49.632;8.346;2023-02-12T06:06:44;102723.91;;;8.72;72.97
19811;BME280;10065;49.632;8.346;2023-02-12T06:09:13;102728.81;;;8.62;73.06
19811;BME280;10065;49.632;8.346;2023-02-12T06:11:41;102730.72;;;8.60;73.21
19811;BME280;10065;49.632;8.346;2023-02-12T06:14:12;102736.06;;;8.59;73.16
19811;BME280;10065;49.632;8.346;2023-02-12T06:16:43;102730.72;;;8.60;73.07
19811;BME280;10065;49.632;8.346;2023-02-12T06:19:11;102735.22;;;8.58;73.13
19811;BME280;10065;49.632;8.346;2023-02-12T06:21:39;102737.72;;;8.61;73.10
19811;BME280;10065;49.632;8.346;2023-02-12T06:24:08;102739.16;;;8.67;72.34
19811;BME280;10065;49.632;8.346;2023-02-12T06:26:36;102740.81;;;8.70;72.14
19811;BME280;10065;49.632;8.346;2023-02-12T06:29:04;102742.34;;;8.74;72.17
19811;BME280;10065;49.632;8.346;2023-02-12T06:31:33;102739.63;;;8.75;71.63
19811;BME280;10065;49.632;8.346;2023-02-12T06:34:04;102747.63;;;8.74;72.02
19811;BME280;10065;49.632;8.346;2023-02-12T06:36:32;102740.38;;;8.61;72.80
19811;BME280;10065;49.632;8.346;2023-02-12T06:39:00;102741.59;;;8.54;73.29
19811;BME280;10065;49.632;8.346;2023-02-12T06:41:28;102752.50;;;8.48;73.84
19811;BME280;10065;49.632;8.346;2023-02-12T06:43:56;102752.34;;;8.51;73.73
19811;BME280;10065;49.632;8.346;2023-02-12T06:46:24;102751.56;;;8.49;73.42
19811;BME280;10065;49.632;8.346;2023-02-12T06:48:52;102759.81;;;8.43;73.31
19811;BME280;10065;49.632;8.346;2023-02-12T06:51:22;102758.59;;;8.33;74.37
19811;BME280;10065;49.632;8.346;2023-02-12T06:53:51;102763.13;;;8.29;74.39
19811;BME280;10065;49.632;8.346;2023-02-12T06:56:21;102768.13;;;8.36;73.90
19811;BME280;10065;49.632;8.346;2023-02-12T06:58:52;102768.91;;;8.38;73.66
19811;BME280;10065;49.632;8.346;2023-02-12T07:01:22;102771.34;;;8.42;73.55
19811;BME280;10065;49.632;8.346;2023-02-12T07:03:52;102774.13;;;8.39;73.61
19811;BME280;10065;49.632;8.346;2023-02-12T07:06:22;102774.66;;;8.46;73.67
19811;BME280;10065;49.632;8.346;2023-02-12T07:08:50;102778.78;;;8.51;73.31
19811;BME280;10065;49.632;8.346;2023-02-12T07:11:17;102783.91;;;8.54;73.28
19811;BME280;10065;49.632;8.346;2023-02-12T07:13:49;102788.91;;;8.60;72.63
19811;BME280;10065;49.632;8.346;2023-02-12T07:16:17;102791.28;;;8.65;72.15
19811;BME280;10065;49.632;8.346;2023-02-12T07:18:44;102791.22;;;8.66;72.49
19811;BME280;10065;49.632;8.346;2023-02-12T07:21:13;102790.44;;;8.64;73.06
19811;BME280;10065;49.632;8.346;2023-02-12T07:23:45;102794.00;;;8.63;73.59
19811;BME280;10065;49.632;8.346;2023-02-12T07:26:17;102786.41;;;8.57;74.21
19811;BME280;10065;49.632;8.346;2023-02-12T07:28:45;102792.63;;;8.56;74.53
19811;BME280;10065;49.632;8.346;2023-02-12T07:31:15;102790.91;;;8.55;74.43
19811;BME280;10065;49.632;8.346;2023-02-12T07:33:44;102798.69;;;8.58;74.52
19811;BME280;10065;49.632;8.346;2023-02-12T07:36:14;102795.28;;;8.56;74.46
19811;BME280;10065;49.632;8.346;2023-02-12T07:38:43;102790.84;;;8.57;74.61
19811;BME280;10065;49.632;8.346;2023-02-12T07:41:13;102795.28;;;8.56;74.63
19811;BME280;10065;49.632;8.346;2023-02-12T07:43:43;102796.91;;;8.59;74.61
19811;BME280;10065;49.632;8.346;2023-02-12T07:46:13;102792.47;;;8.59;74.89
19811;BME280;10065;49.632;8.346;2023-02-12T07:48:42;102800.88;;;8.67;74.17
19811;BME280;10065;49.632;8.346;2023-02-12T07:51:13;102802.25;;;8.75;73.65
19811;BME280;10065;49.632;8.346;2023-02-12T07:53:42;102797.22;;;8.70;74.00
19811;BME280;10065;49.632;8.346;2023-02-12T07:56:12;102803.19;;;8.74;74.27
19811;BME280;10065;49.632;8.346;2023-02-12T07:58:41;102799.88;;;8.70;74.40
19811;BME280;10065;49.632;8.346;2023-02-12T08:01:12;102805.69;;;8.77;74.02
19811;BME280;10065;49.632;8.346;2023-02-12T08:03:40;102805.16;;;8.70;74.58
19811;BME280;10065;49.632;8.346;2023-02-12T08:06:09;102806.75;;;8.73;74.69
19811;BME280;10065;49.632;8.346;2023-02-12T08:08:37;102810.78;;;8.80;74.46
19811;BME280;10065;49.632;8.346;2023-02-12T08:11:07;102809.13;;;8.79;74.26
19811;BME280;10065;49.632;8.346;2023-02-12T08:13:36;102814.06;;;8.85;74.15
19811;BME280;10065;49.632;8.346;2023-02-12T08:16:05;102814.22;;;8.82;74.32
19811;BME280;10065;49.632;8.346;2023-02-12T08:18:34;102815.78;;;8.86;74.30
19811;BME280;10065;49.632;8.346;2023-02-12T08:21:03;102820.91;;;8.89;74.15
19811;BME280;10065;49.632;8.346;2023-02-12T08:23:33;102824.34;;;8.91;74.28
19811;BME280;10065;49.632;8.346;2023-02-12T08:26:07;102818.88;;;8.94;73.97
19811;BME280;10065;49.632;8.346;2023-02-12T08:28:36;102804.88;;;8.92;74.07
19811;BME280;10065;49.632;8.346;2023-02-12T08:31:07;102814.28;;;8.97;73.91
19811;BME280;10065;49.632;8.346;2023-02-12T08:33:35;102815.06;;;8.99;73.62
19811;BME280;10065;49.632;8.346;2023-02-12T08:36:05;102815.75;;;9.03;73.05
19811;BME280;10065;49.632;8.346;2023-02-12T08:38:33;102823.38;;;9.09;72.90
19811;BME280;10065;49.632;8.346;2023-02-12T08:41:01;102824.13;;;9.11;72.88
19811;BME280;10065;49.632;8.346;2023-02-12T08:43:32;102822.28;;;9.13;72.98
19811;BME280;10065;49.632;8.346;2023-02-12T08:46:01;102821.09;;;9.19;72.81
19811;BME280;10065;49.632;8.346;2023-02-12T08:48:29;102825.44;;;9.20;72.81
19811;BME280;10065;49.632;8.346;2023-02-12T08:51:03;102821.16;;;9.17;72.81
19811;BME280;10065;49.632;8.346;2023-02-12T08:53:31;102822.78;;;9.20;72.72
19811;BME280;10065;49.632;8.346;2023-02-12T08:55:59;102824.59;;;9.19;72.70
19811;BME280;10065;49.632;8.346;2023-02-12T08:58:27;102830.47;;;9.24;72.09
19811;BME280;10065;49.632;8.346;2023-02-12T09:00:56;102829.72;;;9.22;72.49
19811;BME280;10065;49.632;8.346;2023-02-12T09:03:23;102830.81;;;9.18;72.78
19811;BME280;10065;49.632;8.346;2023-02-12T09:05:51;102834.16;;;9.22;72.85
19811;BME280;10065;49.632;8.346;2023-02-12T09:08:20;102834.69;;;9.28;72.88
19811;BME280;10065;49.632;8.346;2023-02-12T09:10:48;102831.03;;;9.31;72.81
19811;BME280;10065;49.632;8.346;2023-02-12T09:13:15;102830.91;;;9.32;72.44
19811;BME280;10065;49.632;8.346;2023-02-12T09:15:45;102832.91;;;9.29;72.71
19811;BME280;10065;49.632;8.346;2023-02-12T09:18:14;102834.69;;;9.28;73.24
19811;BME280;10065;49.632;8.346;2023-02-12T09:20:43;102837.25;;;9.30;73.30
19811;BME280;10065;49.632;8.346;2023-02-12T09:23:13;102831.63;;;9.36;73.45
19811;BME280;10065;49.632;8.346;2023-02-12T09:25:42;102833.25;;;9.38;73.40
19811;BME280;10065;49.632;8.346;2023-02-12T09:28:11;102841.72;;;9.45;73.04
19811;BME280;10065;49.632;8.346;2023-02-12T09:30:40;102836.25;;;9.48;73.18
19811;BME280;10065;49.632;8.346;2023-02-12T09:33:08;102841.28;;;9.53;73.23
19811;BME280;10065;49.632;8.346;2023-02-12T09:35:39;102835.91;;;9.54;73.26
19811;BME280;10065;49.632;8.346;2023-02-12T09:38:07;102835.66;;;9.59;73.12
19811;BME280;10065;49.632;8.346;2023-02-12T09:40:39;102834.56;;;9.63;72.16
19811;BME280;10065;49.632;8.346;2023-02-12T09:43:19;102838.75;;;9.67;72.33
19811;BME280;10065;49.632;8.346;2023-02-12T09:45:57;102839.34;;;9.72;72.50
19811;BME280;10065;49.632;8.346;2023-02-12T09:48:40;102842.59;;;9.77;72.02
19811;BME280;10065;49.632;8.346;2023-02-12T09:51:12;102842.59;;;9.77;71.87
19811;BME280;10065;49.632;8.346;2023-02-12T09:53:42;102844.50;;;9.75;71.89
19811;BME280;10065;49.632;8.346;2023-02-12T09:56:13;102842.94;;;9.71;72.71
19811;BME280;10065;49.632;8.346;2023-02-12T09:58:48;102855.16;;;9.73;72.99
19811;BME280;10065;49.632;8.346;2023-02-12T10:01:20;102854.16;;;9.76;73.24
19811;BME280;10065;49.632;8.346;2023-02-12T10:03:50;102845.59;;;9.71;73.26
19811;BME280;10065;49.632;8.346;2023-02-12T10:06:23;102851.50;;;9.76;72.30
19811;BME280;10065;49.632;8.346;2023-02-12T10:09:14;102845.84;;;9.82;70.58
19811;BME280;10065;49.632;8.346;2023-02-12T10:11:51;102843.78;;;9.87;71.02
19811;BME280;10065;49.632;8.346;2023-02-12T10:14:39;102847.91;;;9.93;71.23
19811;BME280;10065;49.632;8.346;2023-02-12T10:17:16;102840.97;;;9.90;73.29
19811;BME280;10065;49.632;8.346;2023-02-12T10:19:57;102853.88;;;9.96;71.41
19811;BME280;10065;49.632;8.346;2023-02-12T10:22:34;102844.13;;;9.97;72.48
19811;BME280;10065;49.632;8.346;2023-02-12T10:25:23;102840.44;;;9.99;72.54
19811;BME280;10065;49.632;8.346;2023-02-12T10:27:55;102843.59;;;10.06;72.14
19811;BME280;10065;49.632;8.346;2023-02-12T10:30:26;102836.59;;;10.05;71.37
19811;BME280;10065;49.632;8.346;2023-02-12T10:33:00;102843.53;;;10.07;71.38
19811;BME280;10065;49.632;8.346;2023-02-12T10:35:32;102838.22;;;10.07;69.99
19811;BME280;10065;49.632;8.346;2023-02-12T10:38:06;102833.50;;;10.12;71.19
19811;BME280;10065;49.632;8.346;2023-02-12T10:40:35;102831.63;;;10.14;72.01
19811;BME280;10065;49.632;8.346;2023-02-12T10:43:04;102821.66;;;10.20;71.13
19811;BME280;10065;49.632;8.346;2023-02-12T10:45:35;102821.28;;;10.26;71.01
19811;BME280;10065;49.632;8.346;2023-02-12T10:48:09;102824.50;;;10.31;71.55
19811;BME280;10065;49.632;8.346;2023-02-12T10:50:44;102821.78;;;10.32;71.63
19811;BME280;10065;49.632;8.346;2023-02-12T10:53:20;102825.97;;;10.36;71.40
19811;BME280;10065;49.632;8.346;2023-02-12T10:55:48;102823.03;;;10.41;70.42
19811;BME280;10065;49.632;8.346;2023-02-12T10:58:20;102812.75;;;10.50;70.65
19811;BME280;10065;49.632;8.346;2023-02-12T11:00:56;102812.25;;;10.44;69.68
19811;BME280;10065;49.632;8.346;2023-02-12T11:03:28;102801.56;;;10.45;69.22
19811;BME280;10065;49.632;8.346;2023-02-12T11:06:11;102802.03;;;10.52;69.40
19811;BME280;10065;49.632;8.346;2023-02-12T11:08:41;102804.53;;;10.55;69.83
19811;BME280;10065;49.632;8.346;2023-02-12T11:11:11;102801.56;;;10.60;69.28
19811;BME280;10065;49.632;8.346;2023-02-12T11:13:43;102798.84;;;10.61;70.63
19811;BME280;10065;49.632;8.346;2023-02-12T11:16:25;102783.94;;;10.59;68.92
19811;BME280;10065;49.632;8.346;2023-02-12T11:18:57;102784.63;;;10.62;69.09
19811;BME280;10065;49.632;8.346;2023-02-12T11:21:25;102789.94;;;10.62;69.55
19811;BME280;10065;49.632;8.346;2023-02-12T11:23:55;102786.34;;;10.63;70.31
19811;BME280;10065;49.632;8.346;2023-02-12T11:26:25;102783.84;;;10.60;71.40
19811;BME280;10065;49.632;8.346;2023-02-12T11:28:56;102782.75;;;10.64;69.72
19811;BME280;10065;49.632;8.346;2023-02-12T11:31:26;102775.44;;;10.68;70.25
19811;BME280;10065;49.632;8.346;2023-02-12T11:34:07;102774.31;;;10.72;68.91
19811;BME280;10065;49.632;8.346;2023-02-12T11:36:39;102774.00;;;10.76;69.07
19811;BME280;10065;49.632;8.346;2023-02-12T11:39:18;102772.03;;;10.80;69.40
19811;BME280;10065;49.632;8.346;2023-02-12T11:41:50;102767.38;;;10.83;70.34
19811;BME280;10065;49.632;8.346;2023-02-12T11:44:22;102769.47;;;10.92;70.67
19811;BME280;10065;49.632;8.346;2023-02-12T11:46:54;102762.44;;;10.91;70.27
19811;BME280;10065;49.632;8.346;2023-02-12T11:49:26;102767.75;;;10.91;69.73
19811;BME280;10065;49.632;8.346;2023-02-12T11:51:56;102760.38;;;10.97;70.43
19811;BME280;10065;49.632;8.346;2023-02-12T11:54:38;102758.28;;;11.02;68.43
19811;BME280;10065;49.632;8.346;2023-02-12T11:57:22;102762.94;;;11.12;68.15
19811;BME280;10065;49.632;8.346;2023-02-12T12:00:03;102761.03;;;11.14;67.98
19811;BME280;10065;49.632;8.346;2023-02-12T12:02:34;102757.34;;;11.17;68.64
19811;BME280;10065;49.632;8.346;2023-02-12T12:05:08;102753.44;;;11.22;68.56
19811;BME280;10065;49.632;8.346;2023-02-12T12:07:41;102750.97;;;11.34;67.90
19811;BME280;10065;49.632;8.346;2023-02-12T12:10:16;102755.88;;;11.40;66.10
19811;BME280;10065;49.632;8.346;2023-02-12T12:12:49;102747.22;;;11.50;66.61
19811;BME280;10065;49.632;8.346;2023-02-12T12:15:22;102749.88;;;11.50;66.36
19811;BME280;10065;49.632;8.346;2023-02-12T12:18:20;102752.88;;;11.58;65.87
19811;BME280;10065;49.632;8.346;2023-02-12T12:21:15;102746.00;;;11.83;66.09
19811;BME280;10065;49.632;8.346;2023-02-12T12:23:49;102741.81;;;11.79;64.77
19811;BME280;10065;49.632;8.346;2023-02-12T12:26:22;102742.19;;;11.87;65.23
19811;BME280;10065;49.632;8.346;2023-02-12T12:28:56;102740.25;;;11.89;65.25
19811;BME280;10065;49.632;8.346;2023-02-12T12:31:30;102740.59;;;11.97;63.30
19811;BME280;10065;49.632;8.346;2023-02-12T12:34:05;102734.66;;;12.06;63.66
19811;BME280;10065;49.632;8.346;2023-02-12T12:36:46;102730.34;;;12.18;62.78
19811;BME280;10065;49.632;8.346;2023-02-12T12:39:25;102728.78;;;12.28;63.93
19811;BME280;10065;49.632;8.346;2023-02-12T12:42:16;102728.13;;;12.24;63.61
19811;BME280;10065;49.632;8.346;2023-02-12T12:45:04;102722.16;;;12.21;62.97
19811;BME280;10065;49.632;8.346;2023-02-12T12:47:45;102714.72;;;12.13;62.67
19811;BME280;10065;49.632;8.346;2023-02-12T12:50:26;102716.28;;;12.16;63.86
19811;BME280;10065;49.632;8.346;2023-02-12T12:53:09;102712.06;;;12.13;62.50
19811;BME280;10065;49.632;8.346;2023-02-12T12:56:04;102706.84;;;12.12;62.07
19811;BME280;10065;49.632;8.346;2023-02-12T13:01:53;102706.16;;;12.08;62.19
19811;BME280;10065;49.632;8.346;2023-02-12T13:04:54;102702.38;;;12.12;63.63
19811;BME280;10065;49.632;8.346;2023-02-12T13:07:46;102701.28;;;12.02;63.21
19811;BME280;10065;49.632;8.346;2023-02-12T13:10:24;102697.97;;;11.98;64.36
19811;BME280;10065;49.632;8.346;2023-02-12T13:13:05;102701.47;;;11.99;63.82
19811;BME280;10065;49.632;8.346;2023-02-12T13:15:40;102693.72;;;11.96;64.34
19811;BME280;10065;49.632;8.346;2023-02-12T13:18:18;102693.91;;;11.93;64.79
19811;BME280;10065;49.632;8.346;2023-02-12T13:20:50;102700.09;;;12.06;63.58
19811;BME280;10065;49.632;8.346;2023-02-12T13:23:27;102689.34;;;12.07;63.36
19811;BME280;10065;49.632;8.346;2023-02-12T13:26:05;102690.97;;;12.10;63.38